Time;durP1;ratioP1;P1;durP2;ratioP2;P2;SDS_P1;SDS_P2;PMS_P1;PMS_P2;Temp;Humidity;BMP_temperature;BMP_pressure;BME280_temperature;BME280_humidity;BME280_pressure;Samples;Min_cycle;Max_cycle;Signal;HPM_P1;HPM_P2
2023/07/04 00:02:30;;;;;;;2.88;2.33;;;17.50;99.90;;;;;;6273335;28;20052;-83
2023/07/04 00:05:33;;;;;;;3.53;2.55;;;17.60;99.90;;;;;;6272078;28;20148;-83
2023/07/04 00:08:35;;;;;;;5.97;2.05;;;17.50;99.90;;;;;;6268906;28;20447;-82
2023/07/04 00:11:37;;;;;;;5.00;2.17;;;17.50;99.90;;;;;;6269956;28;20045;-83
2023/07/04 00:14:38;;;;;;;6.28;2.30;;;17.40;99.90;;;;;;6271089;28;20037;-81
2023/07/04 00:17:42;;;;;;;4.03;2.17;;;17.40;99.90;;;;;;6274323;28;20057;-82
2023/07/04 00:20:45;;;;;;;3.17;2.08;;;17.40;99.90;;;;;;6271662;28;20053;-81
2023/07/04 00:23:52;;;;;;;3.40;2.65;;;17.40;99.90;;;;;;6271320;28;20077;-83
2023/07/04 00:26:56;;;;;;;3.25;1.70;;;17.40;99.90;;;;;;6270554;28;20510;-81
2023/07/04 00:29:58;;;;;;;3.00;1.92;;;17.30;99.90;;;;;;6265897;28;20053;-82
2023/07/04 00:33:00;;;;;;;2.13;1.63;;;17.40;99.90;;;;;;6271201;28;20091;-84
2023/07/04 00:36:05;;;;;;;4.80;1.95;;;17.30;99.90;;;;;;6268205;28;20041;-82
2023/07/04 00:39:07;;;;;;;2.75;2.13;;;17.30;99.90;;;;;;6268885;28;20057;-81
2023/07/04 00:42:09;;;;;;;2.88;1.77;;;17.30;99.90;;;;;;6269417;28;20037;-81
2023/07/04 00:45:19;;;;;;;2.42;1.88;;;17.20;99.90;;;;;;6270008;28;20053;-81
2023/07/04 00:48:20;;;;;;;4.22;2.30;;;17.30;99.90;;;;;;6268304;28;20076;-83
2023/07/04 00:51:24;;;;;;;2.03;1.65;;;17.20;99.90;;;;;;6263666;28;20037;-78
2023/07/04 00:54:30;;;;;;;4.15;1.95;;;17.20;99.90;;;;;;6271267;28;20090;-81
2023/07/04 00:57:34;;;;;;;4.32;1.95;;;17.20;99.90;;;;;;6264308;28;20053;-82
2023/07/04 01:00:38;;;;;;;3.05;1.67;;;17.30;99.90;;;;;;6269040;28;20419;-80
2023/07/04 01:03:40;;;;;;;4.40;2.30;;;17.30;99.90;;;;;;6267594;28;20044;-81
2023/07/04 01:06:48;;;;;;;1.80;1.55;;;17.30;99.90;;;;;;6265311;28;20056;-82
2023/07/04 01:09:55;;;;;;;4.03;2.05;;;17.30;99.90;;;;;;6265219;28;20045;-82
2023/07/04 01:12:56;;;;;;;2.95;2.03;;;17.30;99.90;;;;;;6267955;28;20044;-83
2023/07/04 01:15:58;;;;;;;1.70;1.50;;;17.30;99.90;;;;;;6267293;28;21391;-78
2023/07/04 01:19:00;;;;;;;10.95;2.13;;;17.30;99.90;;;;;;6266904;28;20055;-79
2023/07/04 01:22:20;;;;;;;2.10;1.70;;;17.30;99.90;;;;;;6265704;28;20045;-80
2023/07/04 01:25:31;;;;;;;2.15;1.60;;;17.40;99.90;;;;;;6266072;28;20057;-83
2023/07/04 01:28:34;;;;;;;2.45;2.25;;;17.40;99.90;;;;;;6268836;28;20435;-79
2023/07/04 01:31:37;;;;;;;2.22;1.70;;;17.50;99.90;;;;;;6267656;28;20037;-77
2023/07/04 01:34:39;;;;;;;3.70;2.25;;;17.50;99.90;;;;;;6265919;28;20538;-81
2023/07/04 01:37:41;;;;;;;2.13;1.58;;;17.50;99.90;;;;;;6264314;28;20052;-81
2023/07/04 01:40:42;;;;;;;2.92;1.90;;;17.50;99.90;;;;;;6270434;28;20045;-82
2023/07/04 01:43:56;;;;;;;1.75;1.58;;;17.50;99.90;;;;;;6294811;28;20045;-82
2023/07/04 01:46:58;;;;;;;4.53;2.90;;;17.50;99.90;;;;;;6299098;28;20040;-81
2023/07/04 01:49:59;;;;;;;4.03;1.92;;;17.50;99.90;;;;;;6307162;28;20079;-82
2023/07/04 01:53:01;;;;;;;2.90;1.48;;;17.50;99.90;;;;;;6301951;28;20044;-81
2023/07/04 01:56:03;;;;;;;2.05;1.48;;;17.60;99.90;;;;;;6299828;28;20044;-83
2023/07/04 01:59:07;;;;;;;2.40;1.67;;;17.70;99.90;;;;;;6299451;28;20044;-79
2023/07/04 02:02:08;;;;;;;3.28;1.98;;;17.70;99.90;;;;;;6298749;28;20456;-82
2023/07/04 02:05:10;;;;;;;4.10;1.63;;;17.70;99.90;;;;;;6299587;28;20051;-82
2023/07/04 02:08:12;;;;;;;1.83;1.73;;;17.70;99.90;;;;;;6298440;28;20127;-83
2023/07/04 02:11:14;;;;;;;1.88;1.52;;;17.80;99.90;;;;;;6299260;28;20415;-80
2023/07/04 02:14:17;;;;;;;1.98;1.77;;;17.80;99.90;;;;;;6299643;28;20444;-81
2023/07/04 02:17:19;;;;;;;3.42;2.03;;;17.80;99.90;;;;;;6299256;28;20049;-79
2023/07/04 02:20:20;;;;;;;3.17;1.70;;;17.70;99.90;;;;;;6299457;28;20056;-82
2023/07/04 02:23:22;;;;;;;3.70;1.80;;;17.70;99.90;;;;;;6298026;28;20052;-83
2023/07/04 02:26:24;;;;;;;2.38;1.90;;;17.60;99.90;;;;;;6298646;28;20055;-80
2023/07/04 02:29:27;;;;;;;2.25;1.50;;;17.60;99.90;;;;;;6302077;28;20048;-80
2023/07/04 02:32:28;;;;;;;2.58;2.33;;;17.60;99.90;;;;;;6299499;28;20049;-82
2023/07/04 02:35:31;;;;;;;2.45;2.13;;;17.50;99.90;;;;;;6297251;28;20055;-83
2023/07/04 02:38:33;;;;;;;4.05;2.15;;;17.50;99.90;;;;;;6299105;28;20055;-81
2023/07/04 02:41:34;;;;;;;3.30;2.17;;;17.50;99.90;;;;;;6297720;28;20143;-82
2023/07/04 02:44:40;;;;;;;2.75;1.88;;;17.50;99.90;;;;;;6298525;28;20419;-80
2023/07/04 02:47:41;;;;;;;3.47;1.73;;;17.40;99.90;;;;;;6297759;28;20052;-83
2023/07/04 02:50:43;;;;;;;2.90;2.15;;;17.40;99.90;;;;;;6303018;28;20055;-81
2023/07/04 02:53:45;;;;;;;3.72;2.10;;;17.30;99.90;;;;;;6298964;28;20525;-82
2023/07/04 02:56:47;;;;;;;4.63;2.35;;;17.30;99.90;;;;;;6295829;28;20048;-81
2023/07/04 02:59:50;;;;;;;4.57;2.67;;;17.20;99.90;;;;;;6296009;28;20443;-80
2023/07/04 03:02:52;;;;;;;2.92;2.42;;;17.20;99.90;;;;;;6296575;28;20052;-83
2023/07/04 03:05:54;;;;;;;3.47;2.13;;;17.10;99.90;;;;;;6297046;28;20048;-82
2023/07/04 03:08:56;;;;;;;4.88;2.33;;;17.10;99.90;;;;;;6297123;28;20048;-84
2023/07/04 03:11:58;;;;;;;2.60;1.85;;;17.10;99.90;;;;;;6296875;28;20116;-82
2023/07/04 03:15:01;;;;;;;4.18;1.95;;;17.00;99.90;;;;;;6297401;28;20051;-82
2023/07/04 03:18:03;;;;;;;2.30;2.10;;;17.20;99.90;;;;;;6296605;28;20060;-83
2023/07/04 03:21:04;;;;;;;10.05;3.33;;;17.20;99.90;;;;;;6297906;28;20368;-83
2023/07/04 03:24:07;;;;;;;8.45;3.83;;;17.20;99.90;;;;;;6297545;28;20051;-81
2023/07/04 03:27:09;;;;;;;5.70;3.00;;;17.20;99.90;;;;;;6297102;28;20047;-82
2023/07/04 03:30:13;;;;;;;7.05;2.65;;;17.20;99.90;;;;;;6296380;28;20059;-82
2023/07/04 03:33:14;;;;;;;6.63;2.97;;;17.20;99.90;;;;;;6298060;28;20661;-82
2023/07/04 03:36:16;;;;;;;4.40;2.80;;;17.30;99.90;;;;;;6299784;28;20052;-82
2023/07/04 03:39:18;;;;;;;4.13;2.50;;;17.20;99.90;;;;;;6303360;28;20151;-84
2023/07/04 03:42:19;;;;;;;3.95;2.75;;;17.20;99.90;;;;;;6302595;28;20131;-85
2023/07/04 03:45:23;;;;;;;4.03;2.90;;;17.20;99.90;;;;;;6298744;28;20044;-84
2023/07/04 03:48:24;;;;;;;4.63;2.38;;;17.20;99.90;;;;;;6298610;28;20059;-84
2023/07/04 03:51:26;;;;;;;5.35;3.38;;;17.10;99.90;;;;;;6298678;28;20048;-84
2023/07/04 03:54:28;;;;;;;5.30;2.92;;;17.10;99.90;;;;;;6298959;28;20047;-85
2023/07/04 03:57:29;;;;;;;6.43;3.08;;;17.20;99.90;;;;;;6297402;28;20052;-86
2023/07/04 04:00:33;;;;;;;6.03;2.70;;;17.20;99.90;;;;;;6300085;28;20053;-85
2023/07/04 04:03:37;;;;;;;10.93;3.47;;;17.40;99.90;;;;;;6302446;28;20063;-84
2023/07/04 04:06:39;;;;;;;7.28;3.78;;;17.50;99.90;;;;;;6301647;28;20104;-84
2023/07/04 04:09:40;;;;;;;5.03;3.85;;;17.50;99.90;;;;;;6305261;28;20384;-84
2023/07/04 04:12:42;;;;;;;6.28;3.67;;;17.70;99.90;;;;;;6305390;28;20056;-83
2023/07/04 04:15:45;;;;;;;4.18;3.38;;;17.70;99.90;;;;;;6304663;28;20052;-85
2023/07/04 04:18:47;;;;;;;4.75;3.22;;;17.70;99.90;;;;;;6310532;28;20052;-85
2023/07/04 04:21:49;;;;;;;4.53;3.22;;;17.70;99.90;;;;;;6308065;28;20052;-85
2023/07/04 04:24:50;;;;;;;4.38;2.90;;;17.90;99.90;;;;;;6307129;28;20045;-86
2023/07/04 04:27:52;;;;;;;6.60;2.65;;;18.10;99.90;;;;;;6306484;28;20078;-86
2023/07/04 04:30:55;;;;;;;7.25;2.92;;;18.50;99.90;;;;;;6305350;28;20075;-83
2023/07/04 04:33:57;;;;;;;4.10;2.95;;;18.80;99.90;;;;;;6305348;28;20060;-85
2023/07/04 04:36:59;;;;;;;6.05;2.72;;;19.20;99.90;;;;;;6305572;28;20044;-84
2023/07/04 04:40:01;;;;;;;6.13;3.30;;;19.20;99.90;;;;;;6305346;28;20044;-84
2023/07/04 04:43:03;;;;;;;3.25;2.72;;;19.40;99.90;;;;;;6303472;28;20097;-85
2023/07/04 04:46:06;;;;;;;6.22;3.08;;;19.80;99.90;;;;;;6303686;28;20049;-86
2023/07/04 04:49:08;;;;;;;2.67;2.30;;;20.30;99.90;;;;;;6304536;28;20056;-85
2023/07/04 04:52:12;;;;;;;3.50;2.40;;;20.50;99.90;;;;;;6304166;28;20064;-83
2023/07/04 04:55:13;;;;;;;4.60;2.78;;;20.90;99.90;;;;;;6303461;28;20059;-83
2023/07/04 04:58:15;;;;;;;3.45;2.55;;;21.30;99.90;;;;;;6303970;28;20045;-83
2023/07/04 05:01:22;;;;;;;5.20;3.05;;;21.50;99.90;;;;;;6303381;28;20053;-84
2023/07/04 05:04:24;;;;;;;5.50;2.60;;;21.90;99.90;;;;;;6305471;28;20051;-84
2023/07/04 05:07:26;;;;;;;4.13;2.75;;;22.40;99.90;;;;;;6303011;28;20290;-84
2023/07/04 05:10:27;;;;;;;3.40;2.67;;;22.90;99.90;;;;;;6302886;28;20048;-83
2023/07/04 05:13:29;;;;;;;3.40;2.40;;;23.40;99.90;;;;;;6301774;28;20048;-84
2023/07/04 05:16:32;;;;;;;2.22;2.03;;;23.80;99.90;;;;;;6303531;28;20194;-84
2023/07/04 05:19:34;;;;;;;4.47;2.97;;;24.50;99.90;;;;;;6302231;28;20048;-84
2023/07/04 05:22:35;;;;;;;3.60;2.50;;;24.80;99.90;;;;;;6305250;28;20044;-85
2023/07/04 05:25:37;;;;;;;7.65;3.67;;;25.10;99.30;;;;;;6303481;28;20063;-85
2023/07/04 05:28:40;;;;;;;4.05;2.10;;;25.10;97.90;;;;;;6302933;28;20249;-85
2023/07/04 05:31:43;;;;;;;3.28;2.30;;;25.10;97.80;;;;;;6301142;28;20049;-83
2023/07/04 05:34:48;;;;;;;5.07;2.92;;;25.50;96.80;;;;;;6271740;28;20062;-86
2023/07/04 05:37:49;;;;;;;3.13;2.15;;;25.90;96.00;;;;;;6276781;28;20500;-83
2023/07/04 05:52:17;;;;;;;3.22;2.60;;;27.00;91.80;;;;;;6276923;28;20049;-81
2023/07/04 05:55:20;;;;;;;5.03;3.03;;;27.30;90.90;;;;;;6275748;28;20144;-79
2023/07/04 05:58:21;;;;;;;5.18;2.88;;;27.70;89.50;;;;;;6265362;28;20508;-80
2023/07/04 06:01:26;;;;;;;5.63;2.55;;;27.80;87.60;;;;;;6267416;28;20057;-82
2023/07/04 06:04:27;;;;;;;2.80;2.45;;;27.70;85.20;;;;;;6269368;28;20045;-81
2023/07/04 06:07:33;;;;;;;5.75;2.33;;;27.90;84.00;;;;;;6270591;28;20056;-82
2023/07/04 06:10:36;;;;;;;4.75;2.30;;;28.10;82.30;;;;;;6265660;28;20510;-84
2023/07/04 06:13:38;;;;;;;4.10;2.38;;;28.90;79.80;;;;;;6268386;28;20049;-82
2023/07/04 06:16:40;;;;;;;3.10;2.33;;;29.30;76.50;;;;;;6282394;28;21632;-80
2023/07/04 06:19:41;;;;;;;5.25;2.58;;;29.40;75.20;;;;;;6285044;28;20056;-81
2023/07/04 06:22:44;;;;;;;4.30;3.47;;;29.50;73.50;;;;;;6281993;28;20037;-81
2023/07/04 06:25:46;;;;;;;5.90;2.40;;;29.60;72.50;;;;;;6282520;28;20064;-82
2023/07/04 06:28:50;;;;;;;3.17;2.33;;;29.90;70.70;;;;;;6276160;28;20067;-80
2023/07/04 06:31:52;;;;;;;6.28;2.53;;;30.10;69.40;;;;;;6271594;28;21470;-80
2023/07/04 06:34:53;;;;;;;5.20;2.60;;;30.00;67.60;;;;;;6274930;28;20136;-80
2023/07/04 06:37:57;;;;;;;6.55;3.13;;;29.70;66.60;;;;;;6275106;28;20044;-80
2023/07/04 06:41:01;;;;;;;4.32;2.70;;;29.50;65.80;;;;;;6274545;28;20069;-84
2023/07/04 06:44:04;;;;;;;11.80;2.53;;;29.80;65.50;;;;;;6275231;28;21363;-81
2023/07/04 06:47:06;;;;;;;6.32;3.13;;;30.10;63.60;;;;;;6276856;28;20040;-82
2023/07/04 06:50:09;;;;;;;5.45;3.05;;;30.20;62.70;;;;;;6269221;28;20491;-82
2023/07/04 06:53:12;;;;;;;5.70;3.25;;;30.30;61.80;;;;;;6270506;28;20129;-83
2023/07/04 06:56:16;;;;;;;6.45;2.55;;;30.70;60.70;;;;;;6265146;28;20056;-83
2023/07/04 06:59:17;;;;;;;6.15;2.78;;;30.50;60.40;;;;;;6263539;28;20063;-83
2023/07/04 07:02:19;;;;;;;5.47;2.55;;;30.30;60.10;;;;;;6264117;28;20041;-83
2023/07/04 07:05:21;;;;;;;9.77;3.83;;;29.50;60.00;;;;;;6266948;28;20445;-82
2023/07/04 07:08:24;;;;;;;5.95;2.75;;;28.40;61.20;;;;;;6291592;28;20044;-81
2023/07/04 07:11:25;;;;;;;4.53;3.03;;;27.90;62.60;;;;;;6290305;28;20143;-81
2023/07/04 07:14:29;;;;;;;5.85;3.08;;;27.70;62.80;;;;;;6279710;28;20055;-83
2023/07/04 07:17:33;;;;;;;6.80;3.35;;;27.60;63.50;;;;;;6259614;28;20052;-82
2023/07/04 07:20:34;;;;;;;7.28;2.90;;;28.10;63.50;;;;;;6264175;28;20052;-82
2023/07/04 07:23:38;;;;;;;6.70;3.92;;;28.60;62.50;;;;;;6267496;28;20064;-82
2023/07/04 07:26:40;;;;;;;4.95;2.53;;;28.50;61.50;;;;;;6269864;28;20056;-82
2023/07/04 07:29:42;;;;;;;13.13;3.40;;;28.20;61.10;;;;;;6267198;28;20069;-82
2023/07/04 07:32:43;;;;;;;5.18;3.33;;;27.80;61.00;;;;;;6265397;28;20052;-82
2023/07/04 07:35:45;;;;;;;13.23;4.47;;;27.70;61.00;;;;;;6265814;28;20053;-83
2023/07/04 07:38:48;;;;;;;8.90;4.35;;;28.20;60.60;;;;;;6274436;28;20059;-82
2023/07/04 07:41:50;;;;;;;7.07;3.72;;;29.00;59.70;;;;;;6285251;28;20056;-83
2023/07/04 07:44:52;;;;;;;10.55;4.40;;;29.50;58.70;;;;;;6273548;28;20049;-82
2023/07/04 07:47:54;;;;;;;7.60;3.42;;;30.00;57.60;;;;;;6271325;28;20049;-82
2023/07/04 07:50:55;;;;;;;5.80;3.60;;;29.70;56.90;;;;;;6274107;28;20051;-82
2023/07/04 07:53:59;;;;;;;8.48;3.03;;;29.20;57.70;;;;;;6277069;28;20060;-82
2023/07/04 07:57:01;;;;;;;6.22;2.40;;;29.00;57.40;;;;;;6297975;28;20053;-82
2023/07/04 08:00:04;;;;;;;11.48;3.15;;;28.80;57.60;;;;;;6301235;28;20068;-82
2023/07/04 08:03:06;;;;;;;7.00;3.03;;;28.80;57.60;;;;;;6283324;28;20121;-82
2023/07/04 08:06:10;;;;;;;7.30;2.80;;;29.20;57.40;;;;;;6271361;28;20052;-80
2023/07/04 08:09:15;;;;;;;6.15;3.83;;;29.70;56.70;;;;;;6271089;28;20049;-79
2023/07/04 08:12:17;;;;;;;4.13;2.50;;;30.50;55.80;;;;;;6271601;28;20045;-80
2023/07/04 08:15:19;;;;;;;6.32;3.63;;;31.50;54.70;;;;;;6274526;28;20106;-81
2023/07/04 08:18:21;;;;;;;9.55;3.17;;;31.80;53.40;;;;;;6275652;28;20048;-82
2023/07/04 08:21:24;;;;;;;5.07;3.70;;;31.70;52.50;;;;;;6270840;28;20139;-81
2023/07/04 08:24:27;;;;;;;9.77;3.70;;;32.00;51.70;;;;;;6268101;28;20088;-82
2023/07/04 08:27:29;;;;;;;7.35;3.15;;;32.00;51.00;;;;;;6277896;28;20127;-81
2023/07/04 08:30:31;;;;;;;9.55;3.42;;;31.50;51.00;;;;;;6288998;28;20056;-81
2023/07/04 08:33:32;;;;;;;9.25;4.78;;;31.00;51.30;;;;;;6298895;28;20044;-82
2023/07/04 08:36:34;;;;;;;7.82;3.95;;;30.70;50.80;;;;;;6276108;28;20063;-77
2023/07/04 08:39:37;;;;;;;7.32;3.75;;;30.50;50.30;;;;;;6270981;28;20045;-78
2023/07/04 08:42:40;;;;;;;8.98;3.50;;;30.50;50.50;;;;;;6270022;28;20059;-77
2023/07/04 08:45:42;;;;;;;7.35;3.67;;;30.60;50.10;;;;;;6268590;28;20063;-78
2023/07/04 08:48:44;;;;;;;9.65;4.40;;;30.90;50.10;;;;;;6268895;28;20140;-79
2023/07/04 08:51:54;;;;;;;10.70;5.05;;;31.30;49.30;;;;;;6265128;28;20519;-78
2023/07/04 08:54:57;;;;;;;10.73;3.78;;;31.90;48.10;;;;;;6277238;28;20045;-78
2023/07/04 08:58:01;;;;;;;12.88;4.63;;;32.30;47.50;;;;;;6283287;28;20041;-78
2023/07/04 09:01:10;;;;;;;12.25;4.50;;;32.70;46.80;;;;;;6265126;28;20123;-77
2023/07/04 09:04:18;;;;;;;7.72;4.55;;;32.90;46.00;;;;;;6267078;28;20056;-78
2023/07/04 09:07:25;;;;;;;10.52;4.25;;;33.10;45.80;;;;;;6269719;28;20067;-77
2023/07/04 09:10:33;;;;;;;7.82;4.57;;;33.10;45.30;;;;;;6264133;28;20067;-77
2023/07/04 09:13:40;;;;;;;7.93;4.72;;;32.50;45.50;;;;;;6262608;28;20140;-78
2023/07/04 09:16:46;;;;;;;9.60;4.70;;;31.40;46.40;;;;;;6264782;28;20052;-77
2023/07/04 09:19:48;;;;;;;9.90;4.30;;;31.20;47.60;;;;;;6261136;28;20291;-78
2023/07/04 09:22:49;;;;;;;8.25;3.92;;;31.50;47.00;;;;;;6263625;28;20049;-77
2023/07/04 09:25:55;;;;;;;7.45;4.05;;;31.90;46.40;;;;;;6264985;28;20037;-79
2023/07/04 09:28:58;;;;;;;8.02;4.43;;;32.20;45.80;;;;;;6264343;28;20064;-79
2023/07/04 09:32:01;;;;;;;9.18;4.43;;;32.40;45.60;;;;;;6263673;28;20511;-79
2023/07/04 09:35:06;;;;;;;15.55;5.20;;;32.50;45.20;;;;;;6263634;28;20498;-79
2023/07/04 09:38:07;;;;;;;10.45;5.22;;;32.20;44.90;;;;;;6264401;28;20049;-83
2023/07/04 09:41:14;;;;;;;12.10;5.78;;;31.70;44.60;;;;;;6277206;28;20048;-83
2023/07/04 09:44:18;;;;;;;12.98;4.68;;;30.90;45.50;;;;;;6264915;28;20041;-77
2023/07/04 09:47:29;;;;;;;8.70;4.32;;;30.80;46.10;;;;;;6267490;28;20045;-77
2023/07/04 09:50:32;;;;;;;9.85;4.65;;;30.90;46.20;;;;;;6263827;28;20045;-77
2023/07/04 09:53:34;;;;;;;13.50;4.93;;;30.90;46.00;;;;;;6266912;28;20053;-79
2023/07/04 09:56:37;;;;;;;8.88;4.57;;;31.10;45.30;;;;;;6266903;28;20385;-81
2023/07/04 09:59:39;;;;;;;8.32;5.20;;;31.10;44.90;;;;;;6268526;28;20073;-78
2023/07/04 10:02:41;;;;;;;7.10;5.68;;;31.10;44.60;;;;;;6270429;28;20037;-80
2023/07/04 10:05:48;;;;;;;8.05;3.45;;;31.10;44.20;;;;;;6267930;28;20053;-77
2023/07/04 10:08:53;;;;;;;7.15;5.07;;;30.80;44.00;;;;;;6263249;28;20065;-79
2023/07/04 10:12:09;;;;;;;7.68;3.88;;;30.70;44.40;;;;;;6270454;28;20044;-79
2023/07/04 10:15:19;;;;;;;13.00;5.80;;;31.10;44.20;;;;;;6258120;28;20122;-80
2023/07/04 10:18:28;;;;;;;14.52;4.85;;;31.40;43.70;;;;;;6259014;28;20049;-80
2023/07/04 10:21:29;;;;;;;11.57;5.75;;;31.60;43.30;;;;;;6259560;28;20045;-78
2023/07/04 10:24:33;;;;;;;7.90;4.43;;;32.00;42.60;;;;;;6264416;28;20041;-79
2023/07/04 10:27:39;;;;;;;9.45;4.45;;;31.90;42.20;;;;;;6260475;28;20160;-79
2023/07/04 10:30:46;;;;;;;8.73;4.15;;;31.80;42.10;;;;;;6261676;28;20061;-79
2023/07/04 10:33:53;;;;;;;13.13;5.40;;;31.70;42.20;;;;;;6262219;28;20049;-80
2023/07/04 10:36:56;;;;;;;13.32;5.18;;;31.40;42.70;;;;;;6265709;28;20040;-79
2023/07/04 10:40:02;;;;;;;8.80;4.75;;;31.00;43.00;;;;;;6262312;28;20045;-79
2023/07/04 10:43:11;;;;;;;10.50;4.47;;;30.70;43.40;;;;;;6264571;28;20116;-80
2023/07/04 10:46:20;;;;;;;6.50;4.65;;;30.60;43.80;;;;;;6258403;28;20437;-78
2023/07/04 10:49:26;;;;;;;6.25;3.63;;;31.00;43.60;;;;;;6259747;28;20055;-79
2023/07/04 10:52:32;;;;;;;6.43;3.50;;;31.20;43.60;;;;;;6260361;28;20052;-80
2023/07/04 10:55:37;;;;;;;6.38;3.70;;;31.60;42.90;;;;;;6262740;28;20072;-78
2023/07/04 10:58:44;;;;;;;7.82;3.88;;;31.70;42.30;;;;;;6260594;28;20049;-78
2023/07/04 11:01:49;;;;;;;8.10;4.03;;;31.60;42.10;;;;;;6264251;28;20049;-80
2023/07/04 11:04:54;;;;;;;7.00;3.85;;;31.30;42.50;;;;;;6262535;28;20124;-80
2023/07/04 11:07:56;;;;;;;7.60;4.00;;;31.40;42.40;;;;;;6273267;28;20052;-80
2023/07/04 11:11:01;;;;;;;6.07;3.78;;;31.80;42.20;;;;;;6272776;28;20599;-78
2023/07/04 11:14:07;;;;;;;10.65;4.13;;;32.30;41.70;;;;;;6271010;28;20392;-78
2023/07/04 11:17:13;;;;;;;8.38;4.40;;;32.50;41.30;;;;;;6265153;28;20132;-79
2023/07/04 11:20:19;;;;;;;7.10;4.28;;;32.80;40.90;;;;;;6267542;28;20055;-78
2023/07/04 11:23:22;;;;;;;9.23;4.30;;;32.80;40.80;;;;;;6268414;28;20476;-78
2023/07/04 11:26:50;;;;;;;11.93;5.53;;;32.30;41.00;;;;;;6267617;28;20407;-80
2023/07/04 11:29:56;;;;;;;7.15;4.35;;;31.90;41.50;;;;;;6267992;28;20466;-78
2023/07/04 11:32:57;;;;;;;10.88;4.20;;;32.00;41.70;;;;;;6268896;28;20052;-79
2023/07/04 11:36:03;;;;;;;8.63;4.10;;;31.70;41.40;;;;;;6268262;28;20056;-79
2023/07/04 11:39:18;;;;;;;11.63;5.65;;;31.20;41.40;;;;;;6269268;28;20526;-78
2023/07/04 11:42:23;;;;;;;9.65;4.10;;;30.80;41.80;;;;;;6268351;28;20183;-79
2023/07/04 11:45:27;;;;;;;8.05;4.70;;;30.50;42.00;;;;;;6268232;28;20044;-80
2023/07/04 11:48:33;;;;;;;9.07;4.55;;;30.90;42.70;;;;;;6269294;28;20048;-80
2023/07/04 11:51:34;;;;;;;12.45;5.15;;;31.50;42.30;;;;;;6268408;28;20053;-79
2023/07/04 11:54:37;;;;;;;8.05;4.35;;;31.50;41.80;;;;;;6268913;28;20536;-78
2023/07/04 11:58:01;;;;;;;7.82;3.83;;;31.90;41.50;;;;;;6269564;28;20059;-81
2023/07/04 12:01:06;;;;;;;9.18;4.70;;;32.40;40.50;;;;;;6270308;28;20060;-81
2023/07/04 12:04:08;;;;;;;5.28;3.53;;;32.70;40.80;;;;;;6266245;28;20144;-84
2023/07/04 12:07:12;;;;;;;6.75;4.03;;;33.10;40.10;;;;;;6269756;28;20045;-81
2023/07/04 12:10:17;;;;;;;5.43;4.25;;;33.00;40.10;;;;;;6268346;28;20491;-79
2023/07/04 12:13:21;;;;;;;7.75;3.83;;;33.30;40.20;;;;;;6269191;28;22966;-79
2023/07/04 12:16:25;;;;;;;9.98;4.57;;;33.40;39.50;;;;;;6272768;28;20495;-80
2023/07/04 12:19:27;;;;;;;8.90;3.80;;;33.50;39.00;;;;;;6268473;28;20408;-82
2023/07/04 12:22:28;;;;;;;9.25;4.90;;;33.30;39.00;;;;;;6269089;28;20044;-82
2023/07/04 12:25:36;;;;;;;6.53;4.00;;;33.30;39.30;;;;;;6271473;28;20631;-82
2023/07/04 12:28:39;;;;;;;8.82;4.88;;;33.70;39.10;;;;;;6295174;28;20059;-82
2023/07/04 12:31:42;;;;;;;8.18;4.43;;;34.10;38.70;;;;;;6296571;28;21212;-81
2023/07/04 12:34:43;;;;;;;8.48;4.57;;;34.30;38.30;;;;;;6296361;28;20036;-80
2023/07/04 12:37:57;;;;;;;5.65;3.38;;;34.20;38.30;;;;;;6295940;28;20071;-82
2023/07/04 12:41:00;;;;;;;6.65;4.38;;;33.80;38.20;;;;;;6295901;28;20121;-82
2023/07/04 12:44:04;;;;;;;5.78;3.72;;;33.20;38.20;;;;;;6295890;28;20067;-80
2023/07/04 12:47:11;;;;;;;11.07;5.22;;;32.60;38.70;;;;;;6296580;28;20380;-80
2023/07/04 12:50:16;;;;;;;4.63;3.63;;;32.40;39.50;;;;;;6295961;28;20044;-80
2023/07/04 12:53:19;;;;;;;6.35;4.07;;;32.50;39.60;;;;;;6296904;28;20052;-80
2023/07/04 12:56:21;;;;;;;10.50;5.15;;;32.80;39.70;;;;;;6295941;28;20602;-81
2023/07/04 12:59:34;;;;;;;7.30;3.60;;;32.90;39.10;;;;;;6292692;28;20048;-79
2023/07/04 13:02:37;;;;;;;6.35;4.18;;;32.80;39.20;;;;;;6292440;28;20040;-79
2023/07/04 13:05:42;;;;;;;7.85;4.13;;;32.90;39.20;;;;;;6294561;28;20549;-79
2023/07/04 13:08:48;;;;;;;6.68;4.65;;;32.70;39.10;;;;;;6292271;28;20048;-77
2023/07/04 13:11:50;;;;;;;4.35;3.83;;;32.20;39.60;;;;;;6292266;28;20055;-78
2023/07/04 13:15:04;;;;;;;10.57;4.35;;;32.00;39.80;;;;;;6291136;28;20052;-79
2023/07/04 13:18:08;;;;;;;6.78;4.57;;;31.50;40.10;;;;;;6290964;28;20044;-79
2023/07/04 13:21:11;;;;;;;9.27;4.53;;;31.40;40.40;;;;;;6291589;28;20078;-79
2023/07/04 13:24:30;;;;;;;11.48;4.43;;;31.20;40.60;;;;;;6291350;28;20055;-79
2023/07/04 13:27:32;;;;;;;10.90;4.60;;;31.20;40.80;;;;;;6290101;28;20049;-78
2023/07/04 13:30:34;;;;;;;10.52;4.55;;;31.10;40.90;;;;;;6291398;28;20414;-79
2023/07/04 13:33:37;;;;;;;8.10;3.55;;;31.00;41.10;;;;;;6290726;28;20055;-79
2023/07/04 13:36:41;;;;;;;9.63;4.60;;;31.10;41.40;;;;;;6290897;28;20052;-79
2023/07/04 13:39:42;;;;;;;8.50;4.18;;;31.20;41.40;;;;;;6290036;28;20108;-79
2023/07/04 13:43:04;;;;;;;11.93;5.00;;;31.10;41.40;;;;;;6289292;28;20064;-80
2023/07/04 13:46:06;;;;;;;8.95;4.63;;;30.50;42.00;;;;;;6288886;28;20147;-78
2023/07/04 13:49:09;;;;;;;7.30;4.85;;;30.30;42.20;;;;;;6289150;28;20060;-80
2023/07/04 13:52:11;;;;;;;6.10;3.40;;;30.30;42.60;;;;;;6288474;28;20368;-79
2023/07/04 13:55:13;;;;;;;5.20;3.15;;;30.80;42.70;;;;;;6290524;28;20388;-79
2023/07/04 13:58:19;;;;;;;4.65;4.15;;;30.90;42.10;;;;;;6289197;28;20045;-79
2023/07/04 14:01:21;;;;;;;6.82;4.20;;;30.60;42.00;;;;;;6291056;28;20049;-79
2023/07/04 14:04:24;;;;;;;7.47;4.03;;;30.20;42.40;;;;;;6290380;28;20048;-80
2023/07/04 14:07:26;;;;;;;6.22;4.28;;;30.20;42.70;;;;;;6288647;28;20434;-78
2023/07/04 14:10:28;;;;;;;5.15;4.00;;;30.00;42.80;;;;;;6286980;28;20041;-79
2023/07/04 14:13:30;;;;;;;10.07;4.07;;;29.80;42.80;;;;;;6288099;28;20766;-78
2023/07/04 14:16:32;;;;;;;6.25;4.38;;;29.50;43.30;;;;;;6288101;28;20052;-79
2023/07/04 14:19:35;;;;;;;4.47;3.28;;;29.30;43.60;;;;;;6288542;28;20045;-80
2023/07/04 14:22:37;;;;;;;5.78;3.88;;;29.30;43.90;;;;;;6289022;28;20048;-79
2023/07/04 14:25:39;;;;;;;6.47;3.50;;;29.20;44.00;;;;;;6290487;28;20056;-79
2023/07/04 14:28:41;;;;;;;6.47;4.13;;;29.40;44.30;;;;;;6287812;28;20048;-78
2023/07/04 14:31:42;;;;;;;6.90;4.80;;;29.90;44.10;;;;;;6286155;28;20060;-80
2023/07/04 14:34:46;;;;;;;6.32;3.95;;;30.20;43.80;;;;;;6286011;28;20052;-78
2023/07/04 14:37:48;;;;;;;6.75;4.65;;;30.40;43.50;;;;;;6286525;28;20044;-78
2023/07/04 14:40:50;;;;;;;5.20;4.30;;;30.70;43.60;;;;;;6287538;28;20391;-79
2023/07/04 14:43:51;;;;;;;7.85;3.92;;;30.80;43.10;;;;;;6286899;28;20052;-78
2023/07/04 14:46:53;;;;;;;5.00;3.92;;;30.70;43.00;;;;;;6288027;28;20048;-77
2023/07/04 14:49:56;;;;;;;7.95;3.78;;;30.70;43.10;;;;;;6287780;28;20047;-79
2023/07/04 14:52:58;;;;;;;7.30;4.07;;;30.70;43.30;;;;;;6287796;28;20040;-79
2023/07/04 14:56:01;;;;;;;8.43;3.95;;;30.70;43.60;;;;;;6289054;28;20036;-82
2023/07/04 14:59:02;;;;;;;5.18;3.92;;;30.70;43.60;;;;;;6290070;28;20045;-80
2023/07/04 15:02:05;;;;;;;5.95;3.80;;;30.50;43.70;;;;;;6290138;28;20379;-79
2023/07/04 15:05:10;;;;;;;7.68;4.13;;;30.50;43.90;;;;;;6293511;28;20482;-82
2023/07/04 15:08:12;;;;;;;7.47;4.43;;;30.50;43.80;;;;;;6290651;28;20414;-82
2023/07/04 15:11:13;;;;;;;5.78;3.78;;;30.50;43.80;;;;;;6292206;28;20048;-81
2023/07/04 15:14:15;;;;;;;11.65;4.22;;;30.70;43.70;;;;;;6289231;28;20057;-82
2023/07/04 15:17:17;;;;;;;7.68;4.20;;;31.00;43.50;;;;;;6290210;28;20052;-82
2023/07/04 15:20:20;;;;;;;9.35;4.50;;;31.00;43.00;;;;;;6289756;28;20048;-81
2023/07/04 15:23:22;;;;;;;4.68;3.78;;;30.90;42.90;;;;;;6289786;28;20049;-82
2023/07/04 15:26:24;;;;;;;5.03;4.10;;;30.80;43.20;;;;;;6289710;28;20134;-80
2023/07/04 15:29:26;;;;;;;7.35;3.78;;;31.10;43.30;;;;;;6279059;23;20049;-81
2023/07/04 15:32:28;;;;;;;4.90;3.78;;;31.20;42.80;;;;;;6235849;28;20145;-82
2023/07/04 15:35:31;;;;;;;5.40;3.22;;;31.10;43.20;;;;;;6242383;28;20131;-82
2023/07/04 15:38:33;;;;;;;5.72;3.60;;;31.30;42.90;;;;;;6238772;28;20168;-81
2023/07/04 15:41:35;;;;;;;7.22;4.10;;;31.70;42.90;;;;;;6241075;28;20099;-82
2023/07/04 15:44:37;;;;;;;7.03;3.47;;;31.70;42.60;;;;;;6245968;28;20057;-81
2023/07/04 15:47:39;;;;;;;5.95;3.58;;;31.60;42.50;;;;;;6242479;28;20142;-79
2023/07/04 15:50:42;;;;;;;5.68;4.28;;;31.60;42.80;;;;;;6241309;28;20064;-80
2023/07/04 15:53:44;;;;;;;4.88;3.47;;;31.70;42.70;;;;;;6237927;28;20052;-82
2023/07/04 15:56:46;;;;;;;6.97;3.92;;;31.90;42.40;;;;;;6241107;28;20180;-81
2023/07/04 15:59:48;;;;;;;11.65;3.75;;;31.80;42.60;;;;;;6241042;28;20049;-81
2023/07/04 16:02:49;;;;;;;8.52;3.58;;;31.40;42.90;;;;;;6242376;28;20050;-82
2023/07/04 16:05:54;;;;;;;4.35;3.65;;;31.10;43.20;;;;;;6249326;28;20061;-79